Time;durP1;ratioP1;P1;durP2;ratioP2;P2;SDS_P1;SDS_P2;PMS_P1;PMS_P2;Temp;Humidity;BMP_temperature;BMP_pressure;BME280_temperature;BME280_humidity;BME280_pressure;Samples;Min_cycle;Max_cycle;Signal;HPM_P1;HPM_P2
2021/05/30 00:01:42;;;;;;;9.28;7.42;;;;;;;9.89;78.01;96854.81;1673278;85;21375;-76
2021/05/30 00:04:08;;;;;;;8.75;7.87;;;;;;;9.90;77.95;96843.94;1673395;85;20970;-76
2021/05/30 00:06:34;;;;;;;8.18;6.75;;;;;;;9.91;77.98;96846.37;1669613;85;20952;-77
2021/05/30 00:09:00;;;;;;;8.58;7.67;;;;;;;9.92;77.99;96844.58;1668196;85;21248;-77
2021/05/30 00:11:25;;;;;;;9.25;7.80;;;;;;;9.93;78.05;96851.42;1674002;84;21043;-78
2021/05/30 00:13:52;;;;;;;9.80;7.90;;;;;;;9.95;78.05;96843.47;1674964;85;20962;-78
2021/05/30 00:16:18;;;;;;;8.78;7.97;;;;;;;9.92;78.11;96839.39;1681337;85;21018;-77
2021/05/30 00:18:44;;;;;;;9.38;7.60;;;;;;;9.91;78.09;96837.77;1643220;84;21003;-77
2021/05/30 00:21:09;;;;;;;8.98;8.08;;;;;;;9.95;78.21;96840.88;1673985;85;21397;-77
2021/05/30 00:23:35;;;;;;;11.10;8.45;;;;;;;9.98;78.02;96843.13;1673243;85;21067;-77
2021/05/30 00:26:01;;;;;;;9.53;8.53;;;;;;;9.99;78.08;96837.77;1672255;84;21035;-78
2021/05/30 00:28:27;;;;;;;16.12;12.05;;;;;;;9.98;78.00;96842.64;1663814;85;20971;-77
2021/05/30 00:30:52;;;;;;;12.98;11.55;;;;;;;9.93;78.08;96839.74;1634009;85;20966;-77
2021/05/30 00:33:18;;;;;;;12.70;11.03;;;;;;;9.87;78.00;96836.00;1638965;85;20998;-77
2021/05/30 00:35:44;;;;;;;13.22;11.25;;;;;;;9.90;78.10;96837.45;1654031;85;20970;-77
2021/05/30 00:38:09;;;;;;;11.93;10.70;;;;;;;9.90;78.02;96835.67;1658753;84;21295;-77
2021/05/30 00:40:35;;;;;;;12.07;10.82;;;;;;;9.90;78.04;96832.27;1671459;85;20955;-77
2021/05/30 00:43:01;;;;;;;13.62;11.33;;;;;;;9.92;78.04;96834.20;1673790;85;20979;-77
2021/05/30 00:45:28;;;;;;;12.65;11.35;;;;;;;9.95;77.99;96838.27;1657580;85;21026;-77
2021/05/30 00:47:53;;;;;;;13.50;11.70;;;;;;;9.96;78.06;96832.91;1666107;85;21000;-77
2021/05/30 00:50:19;;;;;;;14.03;12.28;;;;;;;9.97;78.04;96830.64;1675499;85;20991;-77
2021/05/30 00:52:45;;;;;;;14.23;12.75;;;;;;;9.96;78.14;96832.91;1663019;85;21005;-77
2021/05/30 00:55:12;;;;;;;13.70;12.33;;;;;;;9.99;78.19;96828.68;1659521;84;20991;-77
2021/05/30 00:57:38;;;;;;;13.98;12.50;;;;;;;10.05;78.13;96831.09;1668648;85;21063;-77
2021/05/30 01:00:06;;;;;;;13.90;12.37;;;;;;;10.09;78.03;96824.12;1659683;85;20948;-77
2021/05/30 01:02:32;;;;;;;15.93;14.23;;;;;;;10.10;78.04;96827.52;1668599;84;20974;-77
2021/05/30 01:04:58;;;;;;;14.90;13.35;;;;;;;10.09;78.08;96830.61;1673835;85;21331;-77
2021/05/30 01:07:24;;;;;;;14.75;13.30;;;;;;;10.09;78.18;96825.41;1675059;85;20955;-77
2021/05/30 01:09:51;;;;;;;16.07;14.38;;;;;;;10.07;78.05;96830.43;1672222;85;20980;-77
2021/05/30 01:12:17;;;;;;;15.72;14.13;;;;;;;10.07;78.02;96827.34;1662887;85;21021;-77
2021/05/30 01:14:43;;;;;;;16.12;14.50;;;;;;;10.08;78.03;96824.26;1668182;85;21075;-77
2021/05/30 01:17:10;;;;;;;16.52;14.83;;;;;;;10.09;77.99;96824.61;1673484;85;20984;-77
2021/05/30 01:19:38;;;;;;;15.90;14.30;;;;;;;10.09;78.04;96822.81;1656074;85;21007;-77
2021/05/30 01:22:07;;;;;;;16.30;14.63;;;;;;;10.08;78.15;96825.55;1660718;85;20980;-77
2021/05/30 01:24:37;;;;;;;17.37;15.23;;;;;;;10.08;78.11;96825.06;1654864;85;21019;-77
2021/05/30 01:27:05;;;;;;;18.05;16.15;;;;;;;10.09;78.08;96824.61;1673389;85;21094;-77
2021/05/30 01:29:30;;;;;;;20.30;17.25;;;;;;;10.10;78.06;96824.92;1680753;84;21034;-77
2021/05/30 01:31:56;;;;;;;20.12;17.25;;;;;;;10.10;78.05;96824.44;1662051;85;21282;-77
2021/05/30 01:34:22;;;;;;;19.75;17.73;;;;;;;10.12;78.10;96826.38;1673552;85;21033;-77
2021/05/30 01:36:47;;;;;;;18.85;16.85;;;;;;;10.15;78.14;96819.54;1663137;85;20975;-76
2021/05/30 01:39:13;;;;;;;18.23;16.05;;;;;;;10.15;78.08;96822.63;1674475;84;21323;-76
2021/05/30 01:41:39;;;;;;;19.70;17.55;;;;;;;10.10;78.26;96819.73;1672661;85;21053;-76
2021/05/30 01:44:04;;;;;;;19.98;16.80;;;;;;;10.07;78.20;96826.05;1667043;85;20991;-76
2021/05/30 01:46:30;;;;;;;21.10;17.45;;;;;;;10.07;78.35;96821.34;1668903;84;21318;-76
2021/05/30 01:48:56;;;;;;;20.62;18.32;;;;;;;10.04;78.27;96816.00;1651329;85;21327;-76
2021/05/30 01:51:22;;;;;;;21.80;19.25;;;;;;;9.97;78.39;96820.74;1668613;85;21026;-76
2021/05/30 01:58:43;;;;;;;28.55;23.18;;;;;;;9.84;78.55;96824.66;1674814;85;20984;-76
2021/05/30 02:01:12;;;;;;;24.77;21.60;;;;;;;9.85;78.52;96820.28;1665203;85;21383;-76
2021/05/30 02:03:38;;;;;;;29.65;23.10;;;;;;;9.85;78.67;96820.28;1641022;86;21074;-76
2021/05/30 02:06:04;;;;;;;29.25;24.43;;;;;;;9.83;78.71;96821.75;1673184;85;21102;-76
2021/05/30 02:08:30;;;;;;;31.02;24.63;;;;;;;9.78;78.77;96824.04;1680957;85;20975;-76
2021/05/30 02:10:56;;;;;;;36.38;26.30;;;;;;;9.76;79.04;96814.77;1639969;86;20987;-76
2021/05/30 02:13:22;;;;;;;34.60;26.27;;;;;;;9.76;79.01;96823.86;1703154;83;20931;-76
2021/05/30 02:15:48;;;;;;;34.00;27.37;;;;;;;9.77;79.05;96825.02;1717916;83;20942;-76
2021/05/30 02:18:13;;;;;;;35.33;27.62;;;;;;;9.74;78.97;96817.53;1692744;83;21057;-77
2021/05/30 02:20:40;;;;;;;38.98;29.15;;;;;;;9.74;78.98;96818.02;1717698;83;21250;-77
2021/05/30 02:23:12;;;;;;;38.38;27.82;;;;;;;9.70;79.08;96821.94;1717181;83;21080;-77
2021/05/30 02:25:38;;;;;;;39.18;29.30;;;;;;;9.69;79.20;96822.91;1695720;83;21319;-77
2021/05/30 02:28:04;;;;;;;38.85;28.07;;;;;;;9.67;79.31;96819.19;1706054;83;20970;-77
2021/05/30 02:30:30;;;;;;;34.58;24.98;;;;;;;9.67;79.37;96816.59;1715876;83;21046;-77
2021/05/30 02:32:56;;;;;;;35.92;27.02;;;;;;;9.64;79.31;96822.12;1715558;83;20958;-77
2021/05/30 02:35:22;;;;;;;37.00;28.15;;;;;;;9.57;79.29;96821.95;1717819;83;21069;-77
2021/05/30 02:37:48;;;;;;;42.33;30.70;;;;;;;9.56;79.36;96822.92;1699278;83;21374;-77
2021/05/30 02:40:14;;;;;;;39.38;27.62;;;;;;;9.54;79.37;96825.36;1691661;83;21004;-76
2021/05/30 02:42:40;;;;;;;36.40;27.85;;;;;;;9.56;79.54;96824.22;1705364;83;20986;-76
2021/05/30 02:45:06;;;;;;;38.83;27.00;;;;;;;9.56;79.54;96825.52;1717056;83;20982;-76
2021/05/30 02:47:32;;;;;;;37.78;26.97;;;;;;;9.59;79.52;96825.67;1717941;83;21053;-76
2021/05/30 02:49:58;;;;;;;34.00;26.02;;;;;;;9.59;79.52;96830.86;1717881;83;21267;-76
2021/05/30 02:52:24;;;;;;;33.75;26.60;;;;;;;9.60;79.54;96829.91;1718833;83;20974;-76
2021/05/30 02:54:50;;;;;;;38.48;28.67;;;;;;;9.63;79.49;96826.50;1673383;85;20999;-76
2021/05/30 02:57:16;;;;;;;37.75;27.10;;;;;;;9.59;79.45;96829.08;1688729;83;21125;-77
2021/05/30 02:59:42;;;;;;;34.80;26.40;;;;;;;9.62;79.66;96834.45;1707720;83;21078;-77
2021/05/30 03:02:08;;;;;;;35.65;26.15;;;;;;;9.63;79.64;96831.69;1691907;83;21030;-77
2021/05/30 03:04:33;;;;;;;36.35;26.68;;;;;;;9.68;79.73;96825.19;1704296;84;20979;-77
2021/05/30 03:07:00;;;;;;;34.27;25.57;;;;;;;9.74;79.70;96833.11;1704695;83;20973;-77
2021/05/30 03:09:26;;;;;;;33.18;25.55;;;;;;;9.78;79.58;96828.42;1705940;83;20962;-77
2021/05/30 03:11:53;;;;;;;37.15;27.00;;;;;;;9.81;79.49;96823.70;1707345;84;20963;-77
2021/05/30 03:14:18;;;;;;;36.48;26.27;;;;;;;9.83;79.55;96824.83;1690259;83;20963;-76
2021/05/30 03:16:44;;;;;;;31.40;24.55;;;;;;;9.85;79.59;96822.87;1683812;84;21279;-76
2021/05/30 03:19:10;;;;;;;32.00;25.60;;;;;;;9.88;79.41;96830.33;1694372;83;21046;-76
2021/05/30 03:21:36;;;;;;;34.13;26.07;;;;;;;9.88;79.27;96827.73;1684149;84;20959;-76
2021/05/30 03:24:03;;;;;;;32.03;25.90;;;;;;;9.93;79.35;96824.17;1687688;83;21244;-76
2021/05/30 03:26:29;;;;;;;32.78;24.80;;;;;;;9.98;79.29;96833.55;1706727;83;21311;-76
2021/05/30 03:28:54;;;;;;;31.02;24.30;;;;;;;10.02;79.12;96833.53;1687298;84;20939;-76
2021/05/30 03:31:20;;;;;;;33.33;25.85;;;;;;;10.04;79.25;96843.27;1673379;85;20979;-76
2021/05/30 03:33:46;;;;;;;32.45;23.45;;;;;;;10.04;79.17;96839.86;1644820;86;21282;-76
2021/05/30 03:36:19;;;;;;;32.53;23.38;;;;;;;10.05;79.14;96844.06;1641677;86;21015;-76
2021/05/30 03:38:42;;;;;;;33.45;24.55;;;;;;;10.09;79.20;96841.00;1658247;85;21458;-76
2021/05/30 03:41:11;;;;;;;32.55;25.15;;;;;;;10.14;79.07;96845.19;1663220;85;21323;-76
2021/05/30 03:43:36;;;;;;;33.13;25.20;;;;;;;10.12;78.99;96840.66;1657205;85;21002;-76
2021/05/30 03:46:02;;;;;;;31.20;24.85;;;;;;;10.08;78.98;96852.33;1647838;86;21294;-76
2021/05/30 03:48:28;;;;;;;34.35;26.00;;;;;;;10.04;79.06;96844.56;1649187;86;21030;-76
2021/05/30 03:50:55;;;;;;;34.95;25.90;;;;;;;10.04;79.06;96851.05;1634165;86;21046;-76
2021/05/30 03:53:20;;;;;;;31.90;24.70;;;;;;;10.00;79.00;96849.77;1707599;83;20986;-76
2021/05/30 03:55:49;;;;;;;33.23;25.37;;;;;;;9.98;78.97;96851.72;1684970;83;21031;-76
2021/05/30 03:58:15;;;;;;;35.45;26.02;;;;;;;10.00;79.10;96852.85;1671420;85;21071;-76
2021/05/30 04:00:42;;;;;;;34.60;25.80;;;;;;;10.02;79.08;96859.50;1669817;85;21085;-77
2021/05/30 04:03:09;;;;;;;34.92;24.98;;;;;;;9.99;79.14;96853.34;1632171;87;21316;-77
2021/05/30 04:05:34;;;;;;;33.15;25.43;;;;;;;9.96;79.46;96857.58;1660252;85;20967;-77
2021/05/30 04:08:00;;;;;;;31.52;23.70;;;;;;;9.97;79.44;96860.98;1672375;85;20957;-77
2021/05/30 04:10:26;;;;;;;29.35;22.80;;;;;;;9.97;79.42;96864.39;1667196;85;20964;-77
2021/05/30 04:12:52;;;;;;;31.15;24.77;;;;;;;10.04;79.41;96873.12;1670102;85;20986;-77
2021/05/30 04:15:20;;;;;;;30.37;23.42;;;;;;;10.10;79.61;96875.56;1669289;85;21027;-77
2021/05/30 04:17:46;;;;;;;27.32;21.68;;;;;;;10.09;79.32;96874.75;1657323;85;21061;-77
2021/05/30 04:20:16;;;;;;;30.27;23.07;;;;;;;10.09;79.43;96873.45;1667017;85;21050;-77
2021/05/30 04:22:41;;;;;;;27.50;21.12;;;;;;;10.08;79.32;96876.19;1643846;85;21009;-77
2021/05/30 04:25:09;;;;;;;28.47;21.35;;;;;;;10.07;79.36;96883.16;1673498;85;21244;-77
2021/05/30 04:27:36;;;;;;;23.50;19.35;;;;;;;10.07;79.21;96875.37;1642311;85;21007;-77
2021/05/30 04:30:05;;;;;;;23.67;18.92;;;;;;;10.12;79.14;96878.30;1658966;85;20959;-77
2021/05/30 04:32:31;;;;;;;23.52;18.55;;;;;;;10.15;79.15;96883.16;1657594;85;21300;-77
2021/05/30 04:34:58;;;;;;;19.92;16.45;;;;;;;10.15;79.12;96880.56;1671768;85;21079;-77
2021/05/30 04:37:23;;;;;;;17.73;15.15;;;;;;;10.13;79.01;96887.72;1661732;85;21274;-77
2021/05/30 04:39:49;;;;;;;19.85;15.85;;;;;;;10.04;78.74;96896.48;1673147;85;20962;-77
2021/05/30 04:42:15;;;;;;;19.48;14.75;;;;;;;9.96;78.79;96892.63;1669742;85;21018;-77
2021/05/30 04:44:40;;;;;;;17.65;14.00;;;;;;;9.91;78.71;96889.69;1663007;85;21332;-77
2021/05/30 04:47:06;;;;;;;17.27;14.00;;;;;;;9.88;78.78;96888.73;1667795;85;20960;-78
2021/05/30 04:49:32;;;;;;;18.45;16.35;;;;;;;9.84;78.72;96889.55;1666522;85;20980;-77
2021/05/30 04:51:58;;;;;;;18.80;15.40;;;;;;;9.80;78.86;96893.45;1668238;85;21345;-77
2021/05/30 04:54:23;;;;;;;20.72;17.25;;;;;;;9.77;79.14;96893.78;1656068;85;20942;-77
2021/05/30 04:56:49;;;;;;;16.15;14.18;;;;;;;9.78;79.35;96890.70;1672811;85;21036;-77
2021/05/30 04:59:15;;;;;;;20.10;15.83;;;;;;;9.79;79.18;96894.92;1703644;83;21347;-77
2021/05/30 05:01:40;;;;;;;19.87;16.50;;;;;;;9.75;79.24;96890.52;1695760;84;20971;-77
2021/05/30 05:04:07;;;;;;;16.73;14.93;;;;;;;9.81;79.62;96883.39;1712543;83;21043;-77
2021/05/30 05:06:32;;;;;;;20.68;16.25;;;;;;;9.86;79.43;96886.30;1684508;83;21118;-77
2021/05/30 05:08:58;;;;;;;20.05;16.37;;;;;;;9.90;79.53;96883.69;1712319;83;21267;-77
2021/05/30 05:11:24;;;;;;;18.77;15.65;;;;;;;9.90;79.65;96886.77;1712121;83;21002;-77
2021/05/30 05:13:50;;;;;;;17.40;15.48;;;;;;;9.89;79.83;96887.75;1689234;83;20967;-77
2021/05/30 05:16:16;;;;;;;20.05;16.50;;;;;;;9.91;79.94;96890.98;1691934;83;21256;-77
2021/05/30 05:18:42;;;;;;;20.68;18.48;;;;;;;9.94;80.08;96890.69;1701265;83;21065;-77
2021/05/30 05:21:07;;;;;;;20.70;18.30;;;;;;;9.99;79.91;96897.48;1711003;84;20999;-77
2021/05/30 05:23:33;;;;;;;21.90;18.60;;;;;;;10.01;79.71;96891.63;1693877;84;21351;-77
2021/05/30 05:26:02;;;;;;;23.30;20.60;;;;;;;10.03;79.84;96891.46;1686152;83;21055;-77
2021/05/30 05:28:27;;;;;;;23.55;20.62;;;;;;;10.01;79.71;96889.52;1706892;83;21095;-77
2021/05/30 05:30:53;;;;;;;26.65;20.12;;;;;;;10.02;79.89;96886.75;1707847;83;21069;-77
2021/05/30 05:33:19;;;;;;;22.98;19.32;;;;;;;10.04;79.82;96891.29;1711532;83;21054;-77
2021/05/30 05:35:45;;;;;;;25.68;21.45;;;;;;;10.05;79.78;96886.42;1707822;83;21024;-77
2021/05/30 05:38:11;;;;;;;26.52;21.65;;;;;;;10.09;80.00;96890.33;1689034;83;21276;-77
2021/05/30 05:40:37;;;;;;;28.15;22.75;;;;;;;10.11;79.88;96892.27;1679238;83;20938;-77
2021/05/30 05:43:07;;;;;;;27.32;22.55;;;;;;;10.10;79.81;96897.63;1712733;83;21025;-77
2021/05/30 05:45:31;;;;;;;25.88;21.80;;;;;;;10.07;79.94;96904.42;1678353;82;21096;-76
2021/05/30 05:47:57;;;;;;;25.65;20.55;;;;;;;10.09;79.92;96909.80;1697807;83;21041;-76
2021/05/30 05:50:23;;;;;;;27.48;22.05;;;;;;;10.13;80.01;96909.78;1707909;83;20987;-77
2021/05/30 05:52:50;;;;;;;23.90;20.48;;;;;;;10.15;79.73;96911.72;1697554;83;21003;-76
2021/05/30 05:55:16;;;;;;;26.00;21.75;;;;;;;10.19;79.80;96905.70;1691660;83;21265;-76
2021/05/30 05:57:42;;;;;;;26.75;22.75;;;;;;;10.16;79.92;96908.15;1699991;83;21043;-76
2021/05/30 06:00:13;;;;;;;24.77;22.10;;;;;;;10.17;80.18;96913.66;1702928;83;20967;-76
2021/05/30 06:02:38;;;;;;;27.50;22.40;;;;;;;10.23;80.40;96912.21;1715903;83;20966;-76
2021/05/30 06:05:06;;;;;;;25.82;21.85;;;;;;;10.33;80.46;96914.63;1712579;83;21378;-76
2021/05/30 06:07:32;;;;;;;29.55;22.00;;;;;;;10.43;80.10;96920.45;1691406;83;20995;-76
2021/05/30 06:09:58;;;;;;;28.23;22.80;;;;;;;10.52;80.20;96918.13;1712806;83;21043;-76
2021/05/30 06:12:24;;;;;;;24.67;21.73;;;;;;;10.58;79.94;96926.58;1696479;83;21275;-76
2021/05/30 06:14:50;;;;;;;29.20;24.05;;;;;;;10.61;79.83;96929.33;1706812;83;21042;-76
2021/05/30 06:17:16;;;;;;;30.90;24.95;;;;;;;10.57;79.52;96927.53;1692638;83;20990;-76
2021/05/30 06:19:42;;;;;;;25.48;21.68;;;;;;;10.58;79.80;96932.27;1712878;83;21041;-76
2021/05/30 06:22:08;;;;;;;25.65;21.77;;;;;;;10.60;79.55;96935.02;1712203;83;20943;-76
2021/05/30 06:24:35;;;;;;;26.37;23.02;;;;;;;10.59;79.29;96933.39;1674134;85;20967;-76
2021/05/30 06:27:01;;;;;;;28.60;22.98;;;;;;;10.56;79.17;96938.91;1708243;83;21009;-76
2021/05/30 06:29:27;;;;;;;27.37;22.17;;;;;;;10.53;79.22;96939.23;1700470;83;21010;-76
2021/05/30 06:31:54;;;;;;;29.67;23.80;;;;;;;10.53;79.43;96939.23;1701926;84;21280;-76
2021/05/30 06:34:19;;;;;;;28.52;23.20;;;;;;;10.58;79.74;96947.37;1701739;83;20995;-76
2021/05/30 06:36:47;;;;;;;26.00;22.07;;;;;;;10.63;79.57;96942.95;1676375;83;21038;-76
2021/05/30 06:39:14;;;;;;;24.12;21.12;;;;;;;10.65;79.52;96950.90;1706769;83;21066;-77
2021/05/30 06:41:39;;;;;;;25.55;21.82;;;;;;;10.72;79.75;96954.92;1709707;83;21001;-76
2021/05/30 06:44:05;;;;;;;23.92;21.23;;;;;;;10.76;79.37;96950.55;1711896;83;21015;-76
2021/05/30 06:46:33;;;;;;;23.87;21.00;;;;;;;10.73;79.39;96957.35;1711488;83;20966;-76
2021/05/30 06:48:59;;;;;;;25.50;22.35;;;;;;;10.72;79.26;96957.52;1711928;83;20987;-76
2021/05/30 06:51:29;;;;;;;24.32;21.62;;;;;;;10.68;79.70;96959.66;1713119;83;20946;-77
2021/05/30 06:53:52;;;;;;;25.27;21.02;;;;;;;10.74;79.98;96959.00;1708677;83;20959;-78
2021/05/30 06:56:18;;;;;;;22.25;19.32;;;;;;;10.82;79.99;96962.85;1704195;83;21320;-77
2021/05/30 06:58:44;;;;;;;24.65;21.00;;;;;;;10.90;79.62;96966.38;1697382;84;21450;-77
2021/05/30 07:01:11;;;;;;;23.98;21.55;;;;;;;10.96;79.44;96970.93;1707224;83;21006;-78
2021/05/30 07:03:38;;;;;;;24.60;21.35;;;;;;;11.01;79.30;96965.53;1699232;84;20982;-76
2021/05/30 07:06:05;;;;;;;26.10;22.55;;;;;;;11.17;79.45;96963.34;1713887;83;20996;-76
2021/05/30 07:08:30;;;;;;;21.93;19.57;;;;;;;11.37;80.13;96965.81;1711560;83;20966;-76
2021/05/30 07:10:56;;;;;;;23.05;18.70;;;;;;;11.53;78.70;96962.30;1713317;83;21010;-76
2021/05/30 07:13:22;;;;;;;21.97;19.67;;;;;;;11.62;78.68;96970.88;1712790;83;20971;-76
2021/05/30 07:15:51;;;;;;;24.60;22.02;;;;;;;11.71;78.25;96962.00;1711395;83;21046;-76
2021/05/30 07:18:16;;;;;;;22.13;19.73;;;;;;;11.86;78.87;96969.89;1713687;83;20999;-76
2021/05/30 07:20:43;;;;;;;22.37;19.98;;;;;;;11.97;78.58;96961.67;1713765;83;21045;-76
2021/05/30 07:23:09;;;;;;;23.32;19.80;;;;;;;12.09;78.28;96967.28;1713771;83;20950;-76
2021/05/30 07:25:36;;;;;;;24.10;20.35;;;;;;;12.24;78.95;96961.60;1693971;84;21030;-76
2021/05/30 07:28:03;;;;;;;22.65;19.60;;;;;;;12.26;77.84;96965.64;1657148;85;21122;-78
2021/05/30 07:30:28;;;;;;;20.50;18.25;;;;;;;12.14;77.10;96972.27;1641866;86;21343;-78
2021/05/30 07:32:54;;;;;;;22.32;20.05;;;;;;;11.94;75.98;96973.26;1656374;86;20971;-78
2021/05/30 07:35:20;;;;;;;24.37;21.55;;;;;;;11.78;76.37;96977.27;1675413;85;20983;-78
2021/05/30 07:37:46;;;;;;;21.40;19.20;;;;;;;11.71;76.84;96975.86;1636788;86;21289;-78
2021/05/30 07:40:12;;;;;;;23.67;21.07;;;;;;;11.67;76.57;96977.66;1659658;85;20997;-79
2021/05/30 07:42:37;;;;;;;23.40;18.73;;;;;;;11.80;77.26;96981.02;1642884;86;21383;-78
2021/05/30 07:45:05;;;;;;;21.93;18.37;;;;;;;11.96;77.66;96983.00;1650036;84;20993;-78
2021/05/30 07:47:31;;;;;;;23.10;19.45;;;;;;;12.10;77.54;96983.22;1653809;84;21046;-78
2021/05/30 07:49:57;;;;;;;22.13;19.85;;;;;;;12.24;77.67;96974.63;1682520;83;21078;-78
2021/05/30 07:52:22;;;;;;;22.65;19.85;;;;;;;12.35;77.59;96975.48;1658690;84;21043;-78
2021/05/30 07:54:48;;;;;;;20.45;17.32;;;;;;;12.47;77.62;96969.34;1657180;83;21272;-78
2021/05/30 07:57:14;;;;;;;19.92;17.50;;;;;;;12.44;76.62;96974.91;1644128;84;21120;-76
2021/05/30 07:59:40;;;;;;;19.35;17.27;;;;;;;12.49;77.15;96974.69;1666895;84;21392;-76
2021/05/30 08:02:07;;;;;;;19.37;17.37;;;;;;;12.60;77.24;96970.34;1652729;84;21079;-77
2021/05/30 08:04:33;;;;;;;16.25;14.00;;;;;;;13.00;77.60;96977.86;1671986;84;20980;-76
2021/05/30 08:07:00;;;;;;;22.02;19.65;;;;;;;13.13;74.52;96974.91;1652504;84;20961;-76
2021/05/30 08:09:26;;;;;;;19.57;17.65;;;;;;;13.17;76.69;96976.16;1656329;84;21018;-76
2021/05/30 08:11:54;;;;;;;20.55;18.25;;;;;;;13.23;75.80;96981.69;1653787;84;20943;-76
2021/05/30 08:14:21;;;;;;;18.65;16.67;;;;;;;13.31;75.15;96978.46;1650703;84;21006;-76
2021/05/30 08:16:47;;;;;;;18.92;16.93;;;;;;;13.22;74.81;96982.19;1677398;84;21352;-76
2021/05/30 08:19:13;;;;;;;20.40;17.55;;;;;;;13.06;74.73;96983.17;1657197;84;21092;-77
2021/05/30 08:21:40;;;;;;;20.65;18.57;;;;;;;12.99;75.05;96980.96;1661395;84;21046;-77
2021/05/30 08:24:06;;;;;;;20.05;18.05;;;;;;;12.95;75.10;96978.41;1655289;84;21002;-77
2021/05/30 08:26:32;;;;;;;21.10;18.92;;;;;;;12.91;75.36;96983.69;1668355;84;20962;-77
2021/05/30 08:28:58;;;;;;;18.42;16.52;;;;;;;13.00;74.74;96988.29;1672706;84;21330;-77
2021/05/30 08:31:23;;;;;;;18.52;16.62;;;;;;;13.04;74.40;96984.34;1648697;84;20970;-77
2021/05/30 08:33:49;;;;;;;17.92;16.02;;;;;;;12.94;74.43;96984.63;1642250;84;20990;-77
2021/05/30 08:36:15;;;;;;;20.43;18.05;;;;;;;12.82;73.88;96986.87;1674774;84;21267;-77
2021/05/30 08:38:40;;;;;;;19.12;16.95;;;;;;;12.77;74.71;96993.62;1679692;84;20943;-77
2021/05/30 08:41:06;;;;;;;19.48;17.32;;;;;;;12.71;74.30;96995.16;1679343;84;20952;-77
2021/05/30 08:43:32;;;;;;;21.02;18.92;;;;;;;12.73;74.88;96992.38;1682105;84;21288;-77
2021/05/30 08:45:58;;;;;;;18.45;16.48;;;;;;;12.89;75.86;96993.49;1664116;84;20953;-77
2021/05/30 08:48:23;;;;;;;14.38;12.88;;;;;;;;;;1648574;84;20961;-77
2021/05/30 08:51:05;;;;;;;15.15;12.93;;;;;;;13.17;73.12;96984.48;1679254;84;20963;-77
2021/05/30 08:53:37;;;;;;;14.50;13.05;;;;;;;13.16;72.73;96989.39;1671636;84;21351;-76
2021/05/30 08:56:04;;;;;;;19.12;15.98;;;;;;;13.20;72.10;96992.81;1635485;84;21011;-77
2021/05/30 08:58:37;;;;;;;14.07;12.58;;;;;;;13.09;73.86;96994.55;1642244;84;21105;-77
2021/05/30 09:01:22;;;;;;;16.12;14.50;;;;;;;13.03;73.61;96991.37;1680313;83;21011;-77
2021/05/30 09:04:10;;;;;;;17.00;15.20;;;;;;;13.03;73.70;96988.77;1681714;83;21010;-77
2021/05/30 09:06:35;;;;;;;16.90;13.75;;;;;;;12.95;73.06;96988.84;1665167;83;20959;-77
2021/05/30 09:09:01;;;;;;;14.73;13.22;;;;;;;12.92;73.42;96989.21;1682055;84;21014;-77
2021/05/30 09:11:48;;;;;;;16.45;14.00;;;;;;;12.94;72.45;96992.45;1651717;83;21319;-77
2021/05/30 09:14:22;;;;;;;16.00;14.40;;;;;;;13.00;73.27;96991.70;1667216;83;21050;-77
2021/05/30 09:17:01;;;;;;;15.60;13.85;;;;;;;13.10;74.62;96990.94;1671660;83;21032;-77
2021/05/30 09:19:50;;;;;;;15.53;13.68;;;;;;;13.21;74.99;96984.48;1651898;84;20966;-77
2021/05/30 09:22:40;;;;;;;16.15;14.45;;;;;;;13.28;74.39;96991.88;1657933;84;21081;-77
2021/05/30 09:25:16;;;;;;;16.17;14.28;;;;;;;13.25;74.26;96986.22;1670569;83;21009;-77
2021/05/30 09:27:46;;;;;;;15.32;13.83;;;;;;;13.21;75.15;96981.88;1652647;84;21001;-77
2021/05/30 09:30:26;;;;;;;17.80;15.05;;;;;;;13.15;74.16;96986.47;1646296;84;20989;-77
2021/05/30 09:36:04;;;;;;;13.05;11.68;;;;;;;13.06;73.94;96992.80;1676083;85;21334;-77
2021/05/30 09:38:33;;;;;;;13.13;11.63;;;;;;;13.02;74.37;96993.67;1666599;85;21005;-77
2021/05/30 09:41:09;;;;;;;13.48;12.15;;;;;;;13.04;74.52;96997.39;1695374;83;21307;-77
2021/05/30 09:43:50;;;;;;;13.62;11.95;;;;;;;13.01;73.90;96997.23;1685444;84;20990;-77
2021/05/30 09:46:18;;;;;;;11.50;10.40;;;;;;;12.94;74.47;97002.88;1653952;85;21378;-77
2021/05/30 09:48:56;;;;;;;11.12;9.25;;;;;;;12.76;73.96;97014.17;1675124;83;21061;-77
2021/05/30 09:51:39;;;;;;;11.08;9.95;;;;;;;12.54;73.86;97020.59;1691306;83;21029;-77
2021/05/30 09:54:14;;;;;;;10.13;9.13;;;;;;;12.38;74.41;97019.45;1665101;85;20996;-77
2021/05/30 09:56:47;;;;;;;11.10;9.80;;;;;;;12.29;74.45;97020.00;1666388;85;21103;-78
2021/05/30 09:59:21;;;;;;;14.43;10.48;;;;;;;12.23;74.66;97020.72;1682959;83;20994;-77
2021/05/30 10:01:57;;;;;;;11.83;10.72;;;;;;;12.23;74.92;97016.81;1672150;84;21042;-77
2021/05/30 10:04:31;;;;;;;16.32;11.78;;;;;;;12.25;75.09;97007.02;1677171;83;21077;-77
2021/05/30 10:07:01;;;;;;;12.25;11.05;;;;;;;12.28;75.60;97010.56;1679259;84;21015;-77
2021/05/30 10:09:28;;;;;;;12.55;11.28;;;;;;;12.35;75.99;97017.67;1682548;83;21307;-77
2021/05/30 10:11:56;;;;;;;15.25;12.10;;;;;;;12.39;76.18;97021.56;1671340;84;21010;-77
2021/05/30 10:14:22;;;;;;;13.43;12.03;;;;;;;12.44;76.10;97019.22;1671258;84;21007;-78
2021/05/30 10:16:48;;;;;;;14.47;12.95;;;;;;;12.47;76.07;97017.56;1671502;84;21012;-77
2021/05/30 10:19:21;;;;;;;13.10;11.75;;;;;;;12.54;76.22;97018.48;1671211;84;21331;-78
2021/05/30 10:21:51;;;;;;;15.55;13.95;;;;;;;12.63;76.46;97023.91;1672931;84;21078;-76
2021/05/30 10:24:17;;;;;;;14.63;13.18;;;;;;;12.70;76.08;97022.23;1688915;84;21054;-77
2021/05/30 10:26:43;;;;;;;15.30;13.68;;;;;;;12.65;75.86;97021.94;1672005;84;21010;-77
2021/05/30 10:29:17;;;;;;;14.83;13.38;;;;;;;12.72;75.72;97024.66;1672754;84;20970;-77
2021/05/30 10:31:47;;;;;;;15.55;13.95;;;;;;;12.82;75.49;97020.77;1660395;84;21077;-77
2021/05/30 10:34:22;;;;;;;16.85;13.68;;;;;;;12.91;75.19;97021.50;1647053;83;21370;-77
2021/05/30 10:37:03;;;;;;;14.35;12.95;;;;;;;12.92;74.68;97017.41;1665215;84;20986;-77
2021/05/30 10:39:32;;;;;;;15.20;13.70;;;;;;;12.91;75.04;97020.20;1671875;84;20986;-77
2021/05/30 10:42:25;;;;;;;16.62;13.18;;;;;;;12.75;75.14;97022.98;1658259;84;20970;-77
2021/05/30 10:45:06;;;;;;;5.87;4.70;;;;;;;12.65;75.76;97047.20;1674966;85;20994;-77
2021/05/30 10:47:47;;;;;;;6.08;3.92;;;;;;;12.42;73.19;97060.30;1644034;84;21294;-77
2021/05/30 10:50:15;;;;;;;4.28;3.00;;;;;;;12.11;73.59;97069.50;1678526;84;21354;-77
2021/05/30 10:52:43;;;;;;;5.22;2.70;;;;;;;11.81;73.76;97084.99;1648315;85;21070;-77
2021/05/30 10:55:18;;;;;;;6.15;2.45;;;;;;;11.55;74.17;97083.98;1649672;84;21049;-77
2021/05/30 10:57:46;;;;;;;2.25;1.55;;;;;;;11.37;74.44;97081.59;1669552;84;21073;-77
2021/05/30 11:00:24;;;;;;;2.25;1.60;;;;;;;11.24;74.45;97076.15;1680006;84;20981;-77
2021/05/30 11:03:10;;;;;;;2.67;1.65;;;;;;;11.13;74.09;97085.61;1664991;84;20952;-77
2021/05/30 11:05:57;;;;;;;2.37;2.10;;;;;;;11.03;74.99;97075.38;1648782;84;20979;-78
2021/05/30 11:08:34;;;;;;;3.25;2.95;;;;;;;11.04;75.02;97072.30;1631955;85;21086;-78
2021/05/30 11:11:25;;;;;;;2.92;2.35;;;;;;;11.06;75.62;97076.84;1650033;85;21014;-78
2021/05/30 11:14:02;;;;;;;3.17;2.70;;;;;;;11.11;76.05;97070.17;1626429;85;20979;-77
2021/05/30 11:16:34;;;;;;;2.92;1.95;;;;;;;11.26;76.42;97068.98;1657235;84;20990;-78
2021/05/30 11:19:05;;;;;;;;;;;;;;;11.42;76.33;97066.80;1653427;85;21311;-77
2021/05/30 11:21:43;;;;;;;2.33;1.90;;;;;;;11.62;76.78;97067.98;1667359;85;20226;-77
2021/05/30 11:24:20;;;;;;;3.35;2.12;;;;;;;11.84;76.62;97077.33;1652027;85;20975;-78
2021/05/30 11:27:00;;;;;;;2.95;2.10;;;;;;;11.97;77.10;97074.47;1659480;85;20975;-77
2021/05/30 11:29:26;;;;;;;2.98;2.20;;;;;;;12.14;77.05;97076.96;1669205;85;21102;-78
2021/05/30 11:31:51;;;;;;;2.12;1.57;;;;;;;12.35;77.25;97070.59;1651611;85;21035;-78
2021/05/30 11:34:17;;;;;;;4.62;1.82;;;;;;;12.59;77.35;97075.61;1653081;85;21019;-78